createdAt,value
2018-09-30T00:01:54.844Z,6.00
2018-09-30T00:05:57.917Z,6.87
2018-09-30T00:10:01.037Z,6.53
2018-09-30T00:14:04.211Z,7.20
2018-09-30T00:18:07.192Z,7.00
2018-09-30T00:22:10.263Z,6.00
2018-09-30T00:28:21.147Z,6.83
2018-09-30T00:32:24.220Z,5.80
2018-09-30T00:36:27.422Z,6.00
2018-09-30T00:40:30.284Z,7.10
2018-09-30T00:44:33.400Z,5.97
2018-09-30T00:48:36.475Z,6.90
2018-09-30T00:52:39.587Z,6.63
2018-09-30T00:56:43.326Z,6.70
2018-09-30T01:00:46.456Z,6.03
2018-09-30T01:04:49.524Z,6.47
2018-09-30T01:08:52.647Z,6.53
2018-09-30T01:12:55.751Z,6.50
2018-09-30T01:16:58.879Z,6.23
2018-09-30T01:21:01.944Z,6.57
2018-09-30T01:25:05.080Z,6.00
2018-09-30T01:29:08.295Z,5.23
2018-09-30T01:33:11.408Z,6.77
2018-09-30T01:37:14.471Z,7.07
2018-09-30T01:41:17.588Z,6.30
2018-09-30T01:45:20.659Z,6.60
2018-09-30T01:49:23.792Z,6.57
2018-09-30T01:53:26.884Z,7.43
2018-09-30T01:57:30.003Z,5.60
2018-09-30T02:01:33.059Z,5.27
2018-09-30T02:05:36.180Z,5.83
2018-09-30T02:09:39.259Z,7.40
2018-09-30T02:13:42.383Z,6.53
2018-09-30T02:17:45.475Z,7.77
2018-09-30T02:21:48.588Z,8.37
2018-09-30T02:25:51.659Z,5.77
2018-09-30T02:29:54.904Z,6.87
2018-09-30T02:33:57.988Z,6.43
2018-09-30T02:38:01.129Z,5.83
2018-09-30T02:42:04.219Z,5.33
2018-09-30T02:46:07.365Z,6.43
2018-09-30T02:50:10.448Z,8.77
2018-09-30T02:54:13.563Z,5.03
2018-09-30T02:58:16.633Z,6.43
2018-09-30T03:02:19.752Z,5.83
2018-09-30T03:07:29.689Z,5.80
2018-09-30T03:11:32.770Z,5.73
2018-09-30T03:15:35.917Z,6.20
2018-09-30T03:19:39.072Z,5.93
2018-09-30T03:23:42.184Z,6.00
2018-09-30T03:27:45.267Z,5.30
2018-09-30T03:31:48.491Z,5.30
2018-09-30T03:35:51.579Z,6.30
2018-09-30T03:39:55.556Z,5.67
2018-09-30T03:43:58.625Z,6.10
2018-09-30T03:48:01.731Z,5.60
2018-09-30T03:52:04.812Z,5.50
2018-09-30T03:56:07.919Z,6.63
2018-09-30T04:00:10.989Z,6.90
2018-09-30T04:04:14.122Z,7.10
2018-09-30T04:08:17.190Z,6.10
2018-09-30T04:12:20.304Z,6.37
2018-09-30T04:16:23.368Z,5.30
2018-09-30T04:20:26.484Z,6.87
2018-09-30T04:24:29.545Z,5.07
2018-09-30T04:28:32.691Z,5.80
2018-09-30T04:32:35.896Z,6.10
2018-09-30T04:36:39.011Z,5.23
2018-09-30T04:40:42.080Z,5.73
2018-09-30T04:44:45.188Z,5.80
2018-09-30T04:48:48.252Z,6.40
2018-09-30T04:52:51.362Z,6.37
2018-09-30T04:56:54.440Z,6.60
2018-09-30T05:00:57.599Z,6.67
2018-09-30T05:05:00.727Z,7.67
2018-09-30T05:09:04.871Z,7.60
2018-09-30T05:13:07.924Z,7.80
2018-09-30T05:17:11.068Z,6.43
2018-09-30T05:21:14.119Z,7.13
2018-09-30T05:25:17.260Z,7.30
2018-09-30T05:29:20.343Z,6.70
2018-09-30T05:33:23.603Z,7.67
2018-09-30T05:37:26.659Z,7.97
2018-09-30T05:41:29.773Z,6.80
2018-09-30T05:45:32.836Z,7.07
2018-09-30T05:49:35.935Z,6.73
2018-09-30T05:53:39.016Z,6.90
2018-09-30T05:57:42.443Z,6.90
2018-09-30T06:01:45.466Z,7.93
2018-09-30T06:05:48.567Z,6.63
2018-09-30T06:09:51.647Z,8.13
2018-09-30T06:13:54.872Z,6.70
2018-09-30T06:17:57.875Z,6.30
2018-09-30T06:22:01.035Z,6.70
2018-09-30T06:26:04.107Z,7.00
2018-09-30T06:30:07.257Z,8.30
2018-09-30T06:34:10.456Z,7.60
2018-09-30T06:38:13.564Z,8.00
2018-09-30T06:42:16.621Z,7.20
2018-09-30T06:46:19.763Z,7.63
2018-09-30T06:50:22.863Z,6.30
2018-09-30T06:54:25.981Z,7.17
2018-09-30T06:58:29.088Z,7.30
2018-09-30T07:02:32.231Z,5.97
2018-09-30T07:06:35.313Z,6.00
2018-09-30T07:10:38.447Z,5.50
2018-09-30T07:14:41.508Z,6.00
2018-09-30T07:18:44.660Z,6.30
2018-09-30T07:22:47.786Z,6.23
2018-09-30T07:26:50.876Z,6.20
2018-09-30T07:30:53.952Z,7.03
2018-09-30T07:34:57.279Z,5.97
2018-09-30T07:39:00.351Z,5.70
2018-09-30T07:43:03.490Z,4.77
2018-09-30T07:47:06.569Z,6.00
2018-09-30T07:51:09.707Z,7.10
2018-09-30T07:55:12.627Z,5.20
2018-09-30T07:59:15.740Z,5.13
2018-09-30T08:03:18.879Z,6.47
2018-09-30T08:07:22.003Z,4.47
2018-09-30T08:11:25.084Z,5.00
2018-09-30T08:15:28.252Z,5.10
2018-09-30T08:19:31.415Z,6.40
2018-09-30T08:23:34.627Z,4.50
2018-09-30T08:27:37.707Z,4.70
2018-09-30T08:31:40.644Z,5.93
2018-09-30T08:35:48.836Z,6.13
2018-09-30T08:39:52.086Z,5.00
2018-09-30T08:43:55.211Z,4.53
2018-09-30T08:47:58.303Z,4.47
2018-09-30T08:52:01.368Z,4.90
2018-09-30T08:56:04.540Z,4.83
2018-09-30T09:00:07.639Z,5.90
2018-09-30T09:04:10.768Z,5.40
2018-09-30T09:08:13.924Z,6.50
2018-09-30T09:12:17.045Z,5.10
2018-09-30T09:16:20.124Z,5.90
2018-09-30T09:20:23.321Z,6.53
2018-09-30T09:24:27.359Z,6.33
2018-09-30T09:28:30.496Z,5.93
2018-09-30T09:32:37.460Z,5.33
2018-09-30T09:36:40.688Z,6.00
2018-09-30T09:40:43.783Z,5.50
2018-09-30T09:44:46.923Z,5.93
2018-09-30T09:48:50.048Z,5.40
2018-09-30T09:52:53.191Z,6.50
2018-09-30T09:56:56.276Z,6.37
2018-09-30T10:01:03.639Z,6.27
2018-09-30T10:05:06.747Z,6.57
2018-09-30T10:09:09.867Z,8.53
2018-09-30T10:13:12.975Z,6.07
2018-09-30T10:17:16.087Z,5.80
2018-09-30T10:21:19.200Z,5.53
2018-09-30T10:25:22.357Z,4.63
2018-09-30T10:29:25.265Z,6.07
2018-09-30T10:33:28.356Z,5.47
2018-09-30T10:37:31.326Z,5.00
2018-09-30T10:41:34.244Z,5.07
2018-09-30T10:45:37.320Z,5.10
2018-09-30T10:49:40.443Z,5.17
2018-09-30T10:53:43.426Z,3.97
2018-09-30T10:57:46.574Z,5.60
2018-09-30T11:01:49.451Z,4.13
2018-09-30T11:05:52.346Z,4.53
2018-09-30T11:09:55.839Z,5.63
2018-09-30T11:13:58.715Z,3.70
2018-09-30T11:18:01.639Z,4.37
2018-09-30T11:22:04.703Z,3.20
2018-09-30T11:26:07.618Z,4.17
2018-09-30T11:30:10.474Z,4.07
2018-09-30T11:34:13.607Z,4.90
2018-09-30T11:38:16.900Z,4.47
2018-09-30T11:42:19.784Z,5.03
2018-09-30T11:46:22.928Z,5.00
2018-09-30T11:50:26.023Z,4.60
2018-09-30T11:54:28.958Z,5.10
2018-09-30T11:58:32.035Z,7.03
2018-09-30T12:02:35.176Z,6.43
2018-09-30T12:06:38.090Z,5.97
2018-09-30T12:10:41.231Z,5.40
2018-09-30T12:14:44.087Z,5.30
2018-09-30T12:18:47.039Z,6.07
2018-09-30T12:22:49.883Z,6.60
2018-09-30T12:26:52.991Z,5.70
2018-09-30T12:30:55.969Z,4.33
2018-09-30T12:34:58.880Z,4.30
2018-09-30T12:39:01.939Z,4.67
2018-09-30T12:43:04.866Z,4.13
2018-09-30T12:47:07.732Z,4.50
2018-09-30T12:51:11.219Z,4.57
2018-09-30T12:55:14.106Z,4.77
2018-09-30T12:59:17.251Z,5.20
2018-09-30T13:03:20.463Z,4.80
2018-09-30T13:07:23.395Z,4.83
2018-09-30T13:11:26.278Z,6.97
2018-09-30T13:15:29.911Z,4.73
2018-09-30T13:19:32.983Z,5.70
2018-09-30T13:23:36.165Z,7.70
2018-09-30T13:27:39.241Z,6.43
2018-09-30T13:31:42.463Z,6.77
2018-09-30T13:35:45.319Z,5.60
2018-09-30T13:39:48.268Z,6.90
2018-09-30T13:43:51.387Z,7.80
2018-09-30T13:47:54.668Z,7.77
2018-09-30T13:51:57.655Z,7.77
2018-09-30T13:56:00.788Z,6.50
2018-09-30T14:00:03.913Z,7.00
2018-09-30T14:04:06.974Z,8.10
2018-09-30T14:08:10.055Z,7.53
2018-09-30T14:12:12.977Z,9.70
2018-09-30T14:16:15.860Z,9.00
2018-09-30T14:20:18.972Z,7.90
2018-09-30T14:24:21.828Z,8.30
2018-09-30T14:28:24.790Z,8.30
2018-09-30T14:32:27.821Z,7.20
2018-09-30T14:36:30.928Z,6.13
2018-09-30T14:40:34.888Z,5.63
2018-09-30T14:44:38.247Z,8.07
2018-09-30T14:48:41.395Z,6.77
2018-09-30T14:52:44.451Z,6.93
2018-09-30T14:56:47.314Z,6.17
2018-09-30T15:00:50.455Z,5.13
2018-09-30T15:04:53.309Z,5.63
2018-09-30T15:08:56.267Z,5.73
2018-09-30T15:12:59.139Z,5.40
2018-09-30T15:17:02.256Z,5.80
2018-09-30T15:21:05.339Z,6.70
2018-09-30T15:29:20.297Z,5.00
2018-09-30T15:33:23.484Z,5.50
2018-09-30T15:37:26.947Z,4.60
2018-09-30T15:41:30.031Z,3.87
2018-09-30T15:45:33.318Z,3.77
2018-09-30T15:49:36.207Z,4.00
2018-09-30T15:53:39.410Z,3.43
2018-09-30T15:57:42.815Z,4.03
2018-09-30T16:01:45.774Z,4.10
2018-09-30T16:05:48.856Z,4.40
2018-09-30T16:09:51.983Z,4.70
2018-09-30T16:13:55.053Z,4.93
2018-09-30T16:17:58.064Z,5.00
2018-09-30T16:22:00.931Z,4.87
2018-09-30T16:26:04.056Z,5.70
2018-09-30T16:30:07.139Z,5.33
2018-09-30T16:34:10.452Z,6.03
2018-09-30T16:38:13.764Z,5.70
2018-09-30T16:42:16.619Z,5.33
2018-09-30T16:46:19.534Z,4.90
2018-09-30T16:50:22.587Z,4.90
2018-09-30T16:54:25.716Z,4.50
2018-09-30T16:58:28.792Z,5.63
2018-09-30T17:02:31.915Z,5.97
2018-09-30T17:06:34.832Z,6.90
2018-09-30T17:10:37.919Z,5.43
2018-09-30T17:14:40.812Z,6.57
2018-09-30T17:18:44.511Z,5.70
2018-09-30T17:22:47.583Z,6.27
2018-09-30T17:26:50.700Z,6.53
2018-09-30T17:30:53.791Z,5.43
2018-09-30T17:34:57.735Z,6.40
2018-09-30T17:39:01.043Z,5.97
2018-09-30T17:43:04.109Z,5.93
2018-09-30T17:47:07.048Z,5.60
2018-09-30T17:51:10.175Z,6.10
2018-09-30T17:55:13.071Z,7.40
2018-09-30T17:59:15.923Z,8.00
2018-09-30T18:03:19.095Z,6.10
2018-09-30T18:07:22.175Z,7.73
2018-09-30T18:11:25.103Z,6.70
2018-09-30T18:15:27.959Z,8.20
2018-09-30T18:19:31.252Z,7.13
2018-09-30T18:23:34.139Z,6.43
2018-09-30T18:27:37.396Z,6.50
2018-09-30T18:31:40.456Z,7.20
2018-09-30T18:35:43.319Z,8.10
2018-09-30T18:39:46.451Z,8.67
2018-09-30T18:43:49.315Z,6.73
2018-09-30T18:47:52.251Z,8.57
2018-09-30T18:51:55.431Z,7.80
2018-09-30T18:55:58.618Z,8.10
2018-09-30T19:00:01.420Z,8.60
2018-09-30T19:04:04.279Z,9.47
2018-09-30T19:08:07.399Z,8.90
2018-09-30T19:12:10.347Z,8.47
2018-09-30T19:16:13.582Z,8.47
2018-09-30T19:20:16.727Z,8.30
2018-09-30T19:24:19.883Z,8.50
2018-09-30T19:28:23.055Z,8.50
2018-09-30T19:32:26.529Z,8.27
2018-09-30T19:36:29.399Z,8.23
2018-09-30T19:40:32.507Z,8.10
2018-09-30T19:44:35.359Z,6.93
2018-09-30T19:48:38.745Z,6.37
2018-09-30T19:52:41.808Z,5.30
2018-09-30T19:56:44.731Z,4.30
2018-09-30T20:00:47.820Z,4.00
2018-09-30T20:04:50.712Z,3.57
2018-09-30T20:08:53.559Z,3.70
2018-09-30T20:12:57.695Z,3.73
2018-09-30T20:17:00.784Z,4.20
2018-09-30T20:21:03.699Z,3.97
2018-09-30T20:25:06.767Z,3.60
2018-09-30T20:29:09.915Z,3.30
2018-09-30T20:33:13.218Z,3.07
2018-09-30T20:37:16.148Z,2.93
2018-09-30T20:41:19.256Z,3.30
2018-09-30T20:45:22.383Z,2.40
2018-09-30T20:49:25.249Z,3.20
2018-09-30T20:53:28.379Z,3.80
2018-09-30T20:57:31.485Z,3.60
2018-09-30T21:01:34.604Z,3.60
2018-09-30T21:05:39.123Z,2.80
2018-09-30T21:09:42.243Z,2.47
2018-09-30T21:13:45.311Z,3.07
2018-09-30T21:17:48.247Z,3.17
2018-09-30T21:21:51.323Z,3.00
2018-09-30T21:25:54.218Z,2.47
2018-09-30T21:29:57.126Z,2.30
2018-09-30T21:34:00.444Z,2.20
2018-09-30T21:38:03.346Z,3.37
2018-09-30T21:42:06.513Z,2.30
2018-09-30T21:46:09.380Z,2.60
2018-09-30T21:50:12.534Z,2.27
2018-09-30T21:54:15.404Z,3.00
2018-09-30T21:58:18.588Z,2.40
2018-09-30T22:02:21.712Z,3.07
2018-09-30T22:06:24.838Z,2.50
2018-09-30T22:10:27.709Z,1.87
2018-09-30T22:14:30.802Z,2.10
2018-09-30T22:18:33.909Z,2.20
2018-09-30T22:22:37.032Z,2.60
2018-09-30T22:26:40.164Z,2.13
2018-09-30T22:30:43.051Z,1.97
2018-09-30T22:34:46.363Z,1.70
2018-09-30T22:38:49.500Z,2.60
2018-09-30T22:42:52.610Z,2.60
2018-09-30T22:46:55.762Z,2.90
2018-09-30T22:50:58.845Z,2.30
2018-09-30T22:55:01.952Z,2.10
2018-09-30T22:59:04.810Z,1.83
2018-09-30T23:03:07.727Z,1.83
2018-09-30T23:07:10.635Z,1.93
2018-09-30T23:11:13.791Z,2.07
2018-09-30T23:15:16.883Z,2.90
2018-09-30T23:19:20.056Z,2.60
2018-09-30T23:23:23.131Z,2.13
2018-09-30T23:27:26.252Z,1.57
2018-09-30T23:31:29.319Z,2.60
2018-09-30T23:35:32.351Z,2.87
2018-09-30T23:39:35.211Z,3.40
2018-09-30T23:43:38.335Z,1.83
2018-09-30T23:47:41.387Z,2.13
2018-09-30T23:51:44.504Z,2.20
2018-09-30T23:55:47.368Z,1.77
2018-09-30T23:59:50.497Z,2.60
